Aérodrome :
LOGIN :

S'inscrire | Disclaimer

   EN    FR    IT 

 










Légende :    VFR   VFR Marginal   IFR   IFR Intensif   IFR Très Intensif
Visi : 
Plafond : 
>= 8 km
>= 3000ft
5 à 8 km
1000 à 3000 ft
1500m à 5 km
500 à 1000 ft
800 à 1500m
200 à 500 ft
< 800m
< 200 ft
Symboles :   Orages  Brouillard  Fortes neiges  Fortes précipitations  Vent > 20 kt
SIGMETs :   Divers  Orages  Givrage  Turbulence  Onde Orograph.  Cendres Volcan.







- Altitude de l'aérodrome : 6 ft
- Code IATA : PSA


LIRP - Galileo Galilei Pisa

DERNIER METAR :
  • 160215Z 10005KT CAVOK 19/19 Q1014 NOSIG

METARs EXPIRÉS :
  • 160145Z 10004KT CAVOK 19/19 Q1014 NOSIG
  • 160115Z 16004KT CAVOK 19/19 Q1014 SKC
  • 160045Z 12004KT CAVOK 20/20 Q1014 NOSIG
  • 160015Z 11006KT 9999 FEW020 20/20 Q1014 NOSIG
  • 152345Z 10005KT 9999 FEW020 20/20 Q1014 NOSIG

TAF TAF LIRP
Valide du 16 à 00h jusqu'au 17 à 00h UTC


152300Z 1600/1624 VRB05KT 9999 FEW020
TEMPO 1616/1622 TSRA FEW020CB SCT030
Pas de NOTAMs connus pour ce terrain.
4 SIGMETs publiés pour la FIR Milano (LIMM) :
 
Turbulence forte
LIMM SIGMET 9 VALID 160300/160500 LIIP
LIMM MILANO FIR SEV TURB FCST W OF LINE N4648 E01238 - N4517 E01313 ABV FL260 MOV E NC=
Orages noyés dans la masse
LIMM SIGMET 8 VALID 152300/160300 LIIP
LIMM MILANO FIR EMBD TS OBS WI N4335 E01204 - N4509 E01012 - N4457 E00720 - N4552 E00731 - N4629 E00944 - N4629 E01247 - N4540 E01328 - N4515 E01208 - N4428 E01320 - N4336 E01307 - N4335 E01204 ABV FL380 STNR NC=
Turbulence forte
LIMM SIGMET 7 VALID 152300/160300 LIIP
LIMM MILANO FIR SEV TURB FCST W OF LINE N4648 E01238 - N4517 E01313 ABV FL260 MOV E NC=
Orages noyés dans la masse
LIMM SIGMET 10 VALID 160300/160400 LIIP
LIMM MILANO FIR EMBD TS OBS WI N4335 E01204 - N4509 E01012 - N4457 E00720 - N4552 E00731 - N4629 E00944 - N4629 E01247 - N4540 E01328 - N4515 E01208 - N4428 E01320 - N4336 E01307 - N4335 E01204 ABV FL380 STNR NC=



MET'MAP, la Météo Aéronautique d'un coup d'oeil ! - Copyright ORBIFLY Décembre 2007 - Disclaimer

ORBIFLY MET'MAP TEAM :

Programmation & Développement : Alexandra Zaïnal
Conception & Développement : Baudouin d'Aumeries
Co-Programmation & Développement : Marc-Olivier Méhu
Soutien technique & logistique : Manuel Goepfert

Contact : metmap@orbifly.com




SOURCES & CREDITS :

   NOAA